createdAt,value
2023-03-12T00:01:13.167Z,95216.00
2023-03-12T00:06:15.582Z,95222.19
2023-03-12T00:11:17.903Z,95210.63
2023-03-12T00:16:22.298Z,95209.22
2023-03-12T00:21:25.422Z,95221.66
2023-03-12T00:26:28.580Z,95201.28
2023-03-12T00:31:34.416Z,95210.28
2023-03-12T00:36:38.112Z,95210.94
2023-03-12T00:41:40.674Z,95221.19
2023-03-12T00:46:43.116Z,95217.19
2023-03-12T00:51:45.599Z,95220.19
2023-03-12T00:56:48.278Z,95216.50
2023-03-12T01:01:50.636Z,95215.31
2023-03-12T01:06:52.961Z,95219.19
2023-03-12T01:11:55.823Z,95221.69
2023-03-12T01:16:58.308Z,95219.13
2023-03-12T01:22:01.033Z,95221.72
2023-03-12T01:27:03.436Z,95226.91
2023-03-12T01:32:05.854Z,95226.91
2023-03-12T01:37:08.651Z,95239.25
2023-03-12T01:42:11.031Z,95229.28
2023-03-12T01:47:13.714Z,95231.03
2023-03-12T01:52:16.184Z,95219.31
2023-03-12T01:57:18.584Z,95211.91
2023-03-12T02:02:26.980Z,95212.28
2023-03-12T02:07:29.675Z,95208.66
2023-03-12T02:12:35.547Z,95217.72
2023-03-12T02:17:37.918Z,95231.56
2023-03-12T02:22:40.286Z,95236.19
2023-03-12T02:27:42.627Z,95251.22
2023-03-12T02:32:45.202Z,95246.03
2023-03-12T02:37:47.801Z,95251.69
2023-03-12T02:42:50.138Z,95251.13
2023-03-12T02:47:52.495Z,95252.63
2023-03-12T02:52:55.499Z,95247.84
2023-03-12T02:57:57.862Z,95254.09
2023-03-12T03:03:00.620Z,95256.28
2023-03-12T03:08:02.988Z,95259.69
2023-03-12T03:13:05.880Z,95256.28
2023-03-12T03:18:18.343Z,95261.56
2023-03-12T03:23:20.887Z,95264.94
2023-03-12T03:28:24.124Z,95267.81
2023-03-12T03:33:26.477Z,95269.47
2023-03-12T03:38:28.884Z,95259.63
2023-03-12T03:43:31.667Z,95264.63
2023-03-12T03:48:34.443Z,95269.34
2023-03-12T03:53:37.618Z,95273.38
2023-03-12T03:58:40.065Z,95272.84
2023-03-12T04:03:42.599Z,95282.97
2023-03-12T04:08:45.040Z,95287.16
2023-03-12T04:13:48.431Z,95287.28
2023-03-12T04:18:51.576Z,95292.13
2023-03-12T04:23:53.989Z,95298.59
2023-03-12T04:28:56.438Z,95304.94
2023-03-12T04:33:58.825Z,95299.22
2023-03-12T04:39:01.653Z,95298.41
2023-03-12T04:44:04.284Z,95303.72
2023-03-12T04:49:06.926Z,95300.59
2023-03-12T04:54:09.279Z,95295.88
2023-03-12T04:59:11.640Z,95290.94
2023-03-12T05:04:14.442Z,95283.47
2023-03-12T05:09:17.732Z,95276.56
2023-03-12T05:14:20.818Z,95273.09
2023-03-12T05:19:23.536Z,95274.56
2023-03-12T05:24:25.970Z,95263.53
2023-03-12T05:29:29.649Z,95268.59
2023-03-12T05:34:31.988Z,95272.88
2023-03-12T05:39:34.290Z,95284.16
2023-03-12T05:44:41.880Z,95287.19
2023-03-12T05:49:45.138Z,95278.88
2023-03-12T05:54:47.479Z,95285.69
2023-03-12T05:59:50.652Z,95295.59
2023-03-12T06:04:53.389Z,95285.44
2023-03-12T06:09:56.407Z,95279.63
2023-03-12T06:14:58.802Z,95281.69
2023-03-12T06:20:01.287Z,95266.25
2023-03-12T06:25:04.064Z,95259.22
2023-03-12T06:30:06.822Z,95257.91
2023-03-12T06:35:10.062Z,95258.44
2023-03-12T06:40:13.055Z,95272.84
2023-03-12T06:45:17.737Z,95257.59
2023-03-12T06:50:20.481Z,95276.53
2023-03-12T06:55:22.887Z,95283.13
2023-03-12T07:00:35.282Z,95298.75
2023-03-12T07:05:38.328Z,95300.44
2023-03-12T07:10:40.996Z,95302.69
2023-03-12T07:15:45.075Z,95300.53
2023-03-12T07:20:57.400Z,95299.66
2023-03-12T07:26:05.137Z,95308.38
2023-03-12T07:31:15.745Z,95308.56
2023-03-12T07:36:21.519Z,95292.75
2023-03-12T07:41:26.303Z,95291.31
2023-03-12T07:46:28.764Z,95294.50
2023-03-12T07:51:31.141Z,95298.97
2023-03-12T07:56:36.262Z,95289.84
2023-03-12T08:01:38.864Z,95300.78
2023-03-12T08:06:42.877Z,95303.31
2023-03-12T08:11:45.527Z,95300.84
2023-03-12T08:16:48.594Z,95311.06
2023-03-12T08:21:51.884Z,95302.97
2023-03-12T08:26:54.875Z,95311.03
2023-03-12T08:32:04.521Z,95313.91
2023-03-12T08:37:08.298Z,95315.06
2023-03-12T08:42:10.770Z,95313.97
2023-03-12T08:47:13.918Z,95318.13
2023-03-12T08:52:17.185Z,95329.53
2023-03-12T08:57:19.514Z,95329.44
2023-03-12T09:02:22.772Z,95333.28
2023-03-12T09:07:25.851Z,95342.97
2023-03-12T09:12:28.463Z,95353.00
2023-03-12T09:17:30.983Z,95344.47
2023-03-12T09:22:33.686Z,95352.63
2023-03-12T09:27:36.410Z,95353.09
2023-03-12T09:32:39.186Z,95351.78
2023-03-12T09:37:41.931Z,95368.41
2023-03-12T09:42:47.330Z,95376.94
2023-03-12T09:47:49.888Z,95377.03
2023-03-12T09:52:52.186Z,95380.19
2023-03-12T09:57:56.578Z,95383.72
2023-03-12T10:02:58.900Z,95383.28
2023-03-12T10:08:10.540Z,95383.41
2023-03-12T10:13:25.286Z,95378.06
2023-03-12T10:18:28.134Z,95375.97
2023-03-12T10:23:30.577Z,95375.63
2023-03-12T10:28:33.955Z,95378.09
2023-03-12T10:33:37.221Z,95382.28
2023-03-12T10:38:40.377Z,95377.78
2023-03-12T10:43:42.676Z,95378.63
2023-03-12T10:48:45.299Z,95384.63
2023-03-12T10:53:48.424Z,95382.19
2023-03-12T10:58:51.877Z,95382.50
2023-03-12T11:03:54.301Z,95383.22
2023-03-12T11:09:06.437Z,95377.22
2023-03-12T11:14:19.012Z,95376.25
2023-03-12T11:19:21.491Z,95367.50
2023-03-12T11:24:24.702Z,95363.09
2023-03-12T11:29:27.163Z,95361.47
2023-03-12T11:34:29.714Z,95363.19
2023-03-12T11:39:32.980Z,95364.06
2023-03-12T11:44:35.386Z,95364.50
2023-03-12T11:49:37.741Z,95367.72
2023-03-12T11:54:40.435Z,95362.47
2023-03-12T11:59:43.565Z,95361.06
2023-03-12T12:04:46.107Z,95352.53
2023-03-12T12:09:49.511Z,95355.63
2023-03-12T12:14:56.386Z,95358.41
2023-03-12T12:19:58.755Z,95356.16
2023-03-12T12:25:01.757Z,95358.63
2023-03-12T12:30:07.246Z,95344.09
2023-03-12T12:35:11.778Z,95350.19
2023-03-12T12:40:16.292Z,95341.72
2023-03-12T12:45:18.699Z,95337.03
2023-03-12T12:50:21.906Z,95339.75
2023-03-12T12:55:25.115Z,95335.59
2023-03-12T13:00:27.672Z,95326.53
2023-03-12T13:05:30.793Z,95329.25
2023-03-12T13:10:34.197Z,95318.09
2023-03-12T13:15:39.957Z,95319.44
2023-03-12T13:20:42.677Z,95311.66
2023-03-12T13:25:46.210Z,95309.44
2023-03-12T13:30:48.814Z,95307.78
2023-03-12T13:35:51.255Z,95314.13
2023-03-12T13:40:54.692Z,95308.44
2023-03-12T13:45:57.212Z,95319.66
2023-03-12T13:50:59.927Z,95305.59
2023-03-12T13:56:04.469Z,95309.56
2023-03-12T14:01:07.292Z,95323.09
2023-03-12T14:06:09.824Z,95324.56
2023-03-12T14:11:12.513Z,95321.25
2023-03-12T14:16:15.261Z,95319.75
2023-03-12T14:21:17.943Z,95316.13
2023-03-12T14:26:20.411Z,95313.03
2023-03-12T14:31:23.293Z,95303.56
2023-03-12T14:36:26.488Z,95302.34
2023-03-12T14:41:39.980Z,95298.84
2023-03-12T14:46:42.669Z,95298.38
2023-03-12T14:51:46.314Z,95291.41
2023-03-12T14:56:49.834Z,95296.16
2023-03-12T15:01:53.044Z,95307.34
2023-03-12T15:06:55.779Z,95312.22
2023-03-12T15:11:58.503Z,95324.53
2023-03-12T15:17:00.951Z,95325.31
2023-03-12T15:22:04.259Z,95325.59
2023-03-12T15:27:06.699Z,95332.03
2023-03-12T15:32:10.276Z,95335.75
2023-03-12T15:37:14.493Z,95334.72
2023-03-12T15:42:16.939Z,95325.09
2023-03-12T15:47:19.503Z,95324.03
2023-03-12T15:52:22.682Z,95318.09
2023-03-12T15:57:26.082Z,95309.53
2023-03-12T16:02:28.553Z,95298.28
2023-03-12T16:07:30.991Z,95298.81
2023-03-12T16:12:34.183Z,95303.66
2023-03-12T16:17:36.623Z,95316.25
2023-03-12T16:22:39.174Z,95317.56
2023-03-12T16:27:43.200Z,95317.03
2023-03-12T16:32:46.501Z,95332.31
2023-03-12T16:37:49.269Z,95315.41
2023-03-12T16:42:51.640Z,95314.91
2023-03-12T16:47:54.091Z,95305.00
2023-03-12T16:52:56.687Z,95307.97
2023-03-12T16:57:59.380Z,95321.84
2023-03-12T17:03:02.747Z,95329.06
2023-03-12T17:08:05.847Z,95322.38
2023-03-12T17:13:08.524Z,95334.38
2023-03-12T17:18:10.977Z,95360.56
2023-03-12T17:23:13.845Z,95351.16
2023-03-12T17:28:16.259Z,95362.34
2023-03-12T17:33:18.664Z,95363.06
2023-03-12T17:38:21.758Z,95369.41
2023-03-12T17:43:24.983Z,95372.78
2023-03-12T17:48:28.460Z,95379.16
2023-03-12T17:53:41.764Z,95368.72
2023-03-12T17:58:54.416Z,95370.06
2023-03-12T18:03:56.908Z,95373.56
2023-03-12T18:08:59.762Z,95378.47
2023-03-12T18:14:02.629Z,95383.53
2023-03-12T18:19:05.315Z,95388.22
2023-03-12T18:24:14.183Z,95381.41
2023-03-12T18:29:17.626Z,95390.19
2023-03-12T18:34:20.880Z,95382.72
2023-03-12T18:39:23.529Z,95380.22
2023-03-12T18:44:26.364Z,95380.78
2023-03-12T18:49:28.944Z,95385.28
2023-03-12T18:54:33.664Z,95392.69
2023-03-12T18:59:36.299Z,95395.84
2023-03-12T19:04:39.216Z,95410.31
2023-03-12T19:09:41.767Z,95407.06
2023-03-12T19:14:44.445Z,95410.19
2023-03-12T19:19:46.827Z,95417.66
2023-03-12T19:24:49.987Z,95422.66
2023-03-12T19:29:53.193Z,95433.50
2023-03-12T19:34:55.674Z,95433.75
2023-03-12T19:39:58.049Z,95440.09
2023-03-12T19:45:00.678Z,95449.47
2023-03-12T19:50:03.522Z,95443.28
2023-03-12T19:55:07.042Z,95439.47
2023-03-12T20:00:12.206Z,95447.19
2023-03-12T20:05:15.687Z,95453.06
2023-03-12T20:10:18.487Z,95449.16
2023-03-12T20:15:26.384Z,95457.53
2023-03-12T20:20:29.794Z,95466.13
2023-03-12T20:25:32.742Z,95458.94
2023-03-12T20:30:35.203Z,95467.00
2023-03-12T20:35:38.398Z,95463.25
2023-03-12T20:40:41.360Z,95467.00
2023-03-12T20:45:43.953Z,95456.53
2023-03-12T20:50:46.669Z,95459.53
2023-03-12T20:55:49.200Z,95455.50
2023-03-12T21:00:51.627Z,95469.66
2023-03-12T21:05:54.882Z,95463.25
2023-03-12T21:10:57.348Z,95461.66
2023-03-12T21:15:59.786Z,95464.25
2023-03-12T21:21:02.480Z,95470.09
2023-03-12T21:26:07.176Z,95473.81
2023-03-12T21:31:11.362Z,95479.75
2023-03-12T21:36:14.090Z,95483.81
2023-03-12T21:41:16.427Z,95490.75
2023-03-12T21:46:19.531Z,95483.59
2023-03-12T21:51:22.645Z,95493.25
2023-03-12T21:56:28.044Z,95480.66
2023-03-12T22:01:30.535Z,95483.59
2023-03-12T22:06:33.312Z,95482.78
2023-03-12T22:11:35.916Z,95471.91
2023-03-12T22:16:38.386Z,95471.59
2023-03-12T22:21:42.441Z,95476.38
2023-03-12T22:26:45.117Z,95477.19
2023-03-12T22:31:47.508Z,95471.09
2023-03-12T22:36:50.175Z,95461.22
2023-03-12T22:41:53.583Z,95454.03
2023-03-12T22:47:00.137Z,95452.75
2023-03-12T22:52:03.831Z,95442.59
2023-03-12T22:57:06.585Z,95440.16
2023-03-12T23:02:09.263Z,95444.91
2023-03-12T23:07:14.599Z,95435.03
2023-03-12T23:12:18.889Z,95421.13
2023-03-12T23:17:22.057Z,95412.66
2023-03-12T23:22:24.771Z,95402.94
2023-03-12T23:27:27.901Z,95400.16
2023-03-12T23:32:30.682Z,95402.09
2023-03-12T23:37:33.377Z,95397.50
2023-03-12T23:42:35.660Z,95396.09
2023-03-12T23:47:38.006Z,95388.66
2023-03-12T23:52:40.339Z,95382.78
2023-03-12T23:57:43.708Z,95371.53
